Time;durP1;ratioP1;P1;durP2;ratioP2;P2;SDS_P1;SDS_P2;PMS_P1;PMS_P2;Temp;Humidity;BMP_temperature;BMP_pressure;BME280_temperature;BME280_humidity;BME280_pressure;Samples;Min_cycle;Max_cycle;Signal;HPM_P1;HPM_P2
2023/06/23 07:27:42;;;;;;;4.50;4.10;;;;;;;;;;10339006;28;20146;-88
2023/06/23 07:33:24;;;;;;;4.18;3.55;;;;;;;;;;10347980;28;20061;-89
2023/06/23 07:38:36;;;;;;;4.45;3.22;;;;;;;;;;10299199;28;20102;-91
2023/06/23 07:44:10;;;;;;;4.82;2.83;;;;;;;;;;10321716;28;20043;-90
2023/06/23 07:49:18;;;;;;;7.57;5.63;;;;;;;;;;10323015;28;20061;-90
2023/06/23 07:54:23;;;;;;;4.90;4.40;;;;;;;;;;10324795;28;20058;-93
2023/06/23 07:59:28;;;;;;;4.35;3.50;;;;;;;;;;10293083;28;20062;-90
2023/06/23 08:04:33;;;;;;;4.68;3.60;;;;;;;;;;10287806;28;20451;-89
2023/06/23 08:09:37;;;;;;;4.82;3.83;;;;;;;;;;10340677;28;20101;-89
2023/06/23 08:14:43;;;;;;;4.82;3.70;;;;;;;;;;10323224;28;20125;-87
2023/06/23 08:19:47;;;;;;;;;;;;;;;;;;10345382;28;20529;-89
2023/06/23 08:24:51;;;;;;;5.03;4.18;;;;;;;;;;10334041;28;19921;-88
2023/06/23 08:29:59;;;;;;;4.55;3.63;;;;;;;;;;10386184;28;20084;-88
2023/06/23 08:35:03;;;;;;;4.47;3.97;;;;;;;;;;10368830;28;20580;-89
2023/06/23 08:40:10;;;;;;;6.35;5.32;;;;;;;;;;10336770;28;20091;-88
2023/06/23 08:45:18;;;;;;;5.90;5.22;;;;;;;;;;10375883;28;20054;-88
2023/06/23 08:50:23;;;;;;;6.57;5.65;;;;;;;;;;10364099;28;20542;-90
2023/06/23 08:55:27;;;;;;;5.78;4.72;;;;;;;;;;10370961;28;20143;-88
2023/06/23 09:00:32;;;;;;;4.15;3.10;;;;;;;;;;10349960;28;20054;-88
2023/06/23 09:05:41;;;;;;;4.10;3.22;;;;;;;;;;10350114;28;20042;-88
2023/06/23 09:10:44;;;;;;;2.95;2.67;;;;;;;;;;10363902;28;20803;-88
2023/06/23 09:15:53;;;;;;;8.48;5.15;;;;;;;;;;10367317;28;20053;-88
2023/06/23 09:21:04;;;;;;;5.20;4.40;;;;;;;;;;10331263;28;20053;-87
2023/06/23 09:26:08;;;;;;;3.90;3.33;;;;;;;;;;10317893;28;20329;-87
2023/06/23 09:31:15;;;;;;;4.85;3.60;;;;;;;;;;10343481;28;20133;-86
2023/06/23 09:36:20;;;;;;;4.65;2.80;;;;;;;;;;10345247;28;20148;-88
2023/06/23 09:41:26;;;;;;;4.05;3.65;;;;;;;;;;10377884;28;20041;-87
2023/06/23 09:46:36;;;;;;;3.38;2.97;;;;;;;;;;10352916;28;20092;-87
2023/06/23 09:51:49;;;;;;;2.65;2.40;;;;;;;;;;10325303;28;20042;-85
2023/06/23 09:57:03;;;;;;;4.18;2.75;;;;;;;;;;10329319;28;20144;-89
2023/06/23 10:02:19;;;;;;;2.55;2.30;;;;;;;;;;10311074;28;20049;-89
2023/06/23 10:07:24;;;;;;;4.85;3.80;;;;;;;;;;10355983;28;20053;-90
2023/06/23 10:12:29;;;;;;;3.30;2.47;;;;;;;;;;10383871;28;20302;-88
2023/06/23 10:17:35;;;;;;;3.95;2.45;;;;;;;;;;10368872;28;20049;-88
2023/06/23 10:22:39;;;;;;;3.72;2.30;;;;;;;;;;10378391;28;20042;-88
2023/06/23 10:27:43;;;;;;;2.45;2.20;;;;;;;;;;10325381;28;20057;-87
2023/06/23 10:32:53;;;;;;;2.03;1.83;;;;;;;;;;10321664;28;20078;-87
2023/06/23 10:38:04;;;;;;;1.85;1.73;;;;;;;;;;10325475;28;20132;-88
2023/06/23 10:43:11;;;;;;;4.97;3.72;;;;;;;;;;10329955;28;20046;-88
2023/06/23 10:48:16;;;;;;;3.50;2.85;;;;;;;;;;10337377;28;20498;-91
2023/06/23 10:53:23;;;;;;;4.32;3.25;;;;;;;;;;10318650;28;20081;-88
2023/06/23 10:58:28;;;;;;;2.47;2.28;;;;;;;;;;10352066;28;20509;-87
2023/06/23 11:03:34;;;;;;;4.45;3.05;;;;;;;;;;10326730;28;20051;-89
2023/06/23 11:08:40;;;;;;;4.03;2.63;;;;;;;;;;10352305;28;20050;-88
2023/06/23 11:13:47;;;;;;;3.70;2.25;;;;;;;;;;10344681;28;20141;-87
2023/06/23 11:18:53;;;;;;;2.88;2.10;;;;;;;;;;10351487;28;20049;-88
2023/06/23 11:24:19;;;;;;;2.10;1.88;;;;;;;;;;10364679;28;20057;-90
2023/06/23 11:29:24;;;;;;;3.67;2.03;;;;;;;;;;10359319;28;20050;-89
2023/06/23 11:34:29;;;;;;;3.17;2.20;;;;;;;;;;10358395;28;20054;-92
2023/06/23 11:39:33;;;;;;;2.60;1.95;;;;;;;;;;10357970;28;20076;-88
2023/06/23 11:44:37;;;;;;;2.67;1.70;;;;;;;;;;10341882;28;20054;-87
2023/06/23 11:49:43;;;;;;;3.20;2.40;;;;;;;;;;10345892;28;20512;-90
2023/06/23 11:54:48;;;;;;;3.47;2.35;;;;;;;;;;10336018;28;20057;-89
2023/06/23 11:59:53;;;;;;;2.55;1.90;;;;;;;;;;10363757;28;20048;-91
2023/06/23 12:04:59;;;;;;;2.42;2.05;;;;;;;;;;10371067;28;20395;-87
2023/06/23 12:10:03;;;;;;;2.00;1.70;;;;;;;;;;10351685;28;20129;-87
2023/06/23 12:15:09;;;;;;;1.60;1.50;;;;;;;;;;10351575;28;20084;-89
2023/06/23 12:20:18;;;;;;;1.70;1.40;;;;;;;;;;10380713;28;20105;-87
2023/06/23 12:25:21;;;;;;;1.92;1.58;;;;;;;;;;10346207;28;20432;-88
2023/06/23 12:30:25;;;;;;;2.70;2.00;;;;;;;;;;10327403;28;20045;-89
2023/06/23 12:35:32;;;;;;;1.52;1.42;;;;;;;;;;10316970;28;20089;-90
2023/06/23 12:40:37;;;;;;;2.78;1.90;;;;;;;;;;10324428;28;20073;-89
2023/06/23 12:45:41;;;;;;;1.42;1.33;;;;;;;;;;10314652;28;20077;-87
2023/06/23 12:50:45;;;;;;;1.98;1.70;;;;;;;;;;10330710;28;20065;-90
2023/06/23 12:55:49;;;;;;;;;;;;;;;;;;10308033;28;20513;-87
2023/06/23 13:00:52;;;;;;;3.28;1.42;;;;;;;;;;10334350;28;19925;-91
2023/06/23 13:05:58;;;;;;;2.35;1.33;;;;;;;;;;10335670;28;20521;-86
2023/06/23 13:11:01;;;;;;;3.78;2.08;;;;;;;;;;10326611;28;20045;-90
2023/06/23 13:16:05;;;;;;;1.90;1.40;;;;;;;;;;10340942;28;20416;-87
2023/06/23 13:21:10;;;;;;;2.92;1.27;;;;;;;;;;10322498;28;20058;-87
2023/06/23 13:26:14;;;;;;;1.60;1.40;;;;;;;;;;10347622;28;20058;-87
2023/06/23 13:31:17;;;;;;;1.70;1.60;;;;;;;;;;10369008;28;20053;-86
2023/06/23 13:36:22;;;;;;;1.88;1.55;;;;;;;;;;10354231;28;20072;-89
2023/06/23 13:41:26;;;;;;;1.30;1.20;;;;;;;;;;10377952;28;20084;-86
2023/06/23 13:46:29;;;;;;;1.60;1.50;;;;;;;;;;10369654;28;20053;-88
2023/06/23 13:51:52;;;;;;;1.95;1.40;;;;;;;;;;10330288;28;20132;-85
2023/06/23 13:56:56;;;;;;;2.60;1.83;;;;;;;;;;10359467;28;20112;-86
2023/06/23 14:01:59;;;;;;;2.05;1.50;;;;;;;;;;10360988;28;20049;-87
2023/06/23 14:07:05;;;;;;;2.50;1.92;;;;;;;;;;10382797;28;20049;-89
2023/06/23 14:12:09;;;;;;;1.63;1.20;;;;;;;;;;10358966;28;20443;-87
2023/06/23 14:17:12;;;;;;;2.25;1.55;;;;;;;;;;10367499;28;20149;-88
2023/06/23 14:22:17;;;;;;;2.70;2.00;;;;;;;;;;10383619;28;20050;-88
2023/06/23 14:27:21;;;;;;;;;;;;;;;;;;10366132;28;20111;-89
2023/06/23 14:32:24;;;;;;;2.22;1.40;;;;;;;;;;10366543;28;19928;-91
2023/06/23 14:37:29;;;;;;;3.53;2.17;;;;;;;;;;10367905;28;20042;-89
2023/06/23 14:42:34;;;;;;;1.60;1.42;;;;;;;;;;10377540;28;20547;-87
2023/06/23 14:47:39;;;;;;;2.28;1.70;;;;;;;;;;10358925;28;20050;-92
2023/06/23 14:52:45;;;;;;;3.35;2.13;;;;;;;;;;10342935;28;20065;-88
2023/06/23 14:57:48;;;;;;;;;;;;;;;;;;10358224;28;20077;-89
2023/06/23 15:02:51;;;;;;;2.33;1.33;;;;;;;;;;10357364;28;19928;-89
2023/06/23 15:07:57;;;;;;;0.82;0.82;;;;;;;;;;10346834;28;20084;-88
2023/06/23 15:13:00;;;;;;;2.17;1.42;;;;;;;;;;10380130;28;20540;-92
2023/06/23 15:18:04;;;;;;;1.63;1.27;;;;;;;;;;10374620;28;20042;-89
2023/06/23 15:23:09;;;;;;;1.20;1.05;;;;;;;;;;10354440;28;20046;-88
2023/06/23 15:28:28;;;;;;;1.20;1.10;;;;;;;;;;10391935;28;20109;-91
2023/06/23 15:33:31;;;;;;;1.25;0.93;;;;;;;;;;10394438;28;20132;-88
2023/06/23 15:38:38;;;;;;;1.33;1.10;;;;;;;;;;10394987;28;20417;-88
2023/06/23 15:43:42;;;;;;;3.47;2.00;;;;;;;;;;10381929;28;20129;-89
2023/06/23 15:48:46;;;;;;;1.92;1.73;;;;;;;;;;10366331;28;20132;-90
2023/06/23 15:53:51;;;;;;;2.20;1.92;;;;;;;;;;10396398;28;20255;-88
2023/06/23 15:58:54;;;;;;;1.45;1.10;;;;;;;;;;10382278;28;20071;-90
2023/06/23 16:03:58;;;;;;;1.60;1.15;;;;;;;;;;10371213;28;20054;-88
2023/06/23 16:09:03;;;;;;;1.10;1.00;;;;;;;;;;10375954;28;20132;-88
2023/06/23 16:14:07;;;;;;;1.00;0.90;;;;;;;;;;10384530;28;20046;-90
2023/06/23 16:19:11;;;;;;;1.33;1.05;;;;;;;;;;10385661;28;20050;-86
2023/06/23 16:24:15;;;;;;;2.78;1.42;;;;;;;;;;10369434;28;20045;-86
2023/06/23 16:29:19;;;;;;;1.33;1.08;;;;;;;;;;10350460;28;20100;-87
2023/06/23 16:34:23;;;;;;;1.70;1.60;;;;;;;;;;10383178;28;20060;-85
2023/06/23 16:39:28;;;;;;;1.75;1.05;;;;;;;;;;10383410;28;20060;-86
2023/06/23 16:44:32;;;;;;;2.28;0.95;;;;;;;;;;10385243;28;20084;-86
2023/06/23 16:49:35;;;;;;;2.72;1.40;;;;;;;;;;10379230;28;20068;-86
2023/06/23 16:54:42;;;;;;;1.00;0.90;;;;;;;;;;10373763;28;20065;-86
2023/06/23 16:59:46;;;;;;;1.55;1.27;;;;;;;;;;10372580;28;20045;-86
2023/06/23 17:04:49;;;;;;;1.55;1.10;;;;;;;;;;10365734;28;20053;-86
2023/06/23 17:09:55;;;;;;;1.17;0.90;;;;;;;;;;10373072;28;20050;-87
2023/06/23 17:14:58;;;;;;;1.30;1.20;;;;;;;;;;10381304;28;20485;-86
2023/06/23 17:20:03;;;;;;;0.80;0.68;;;;;;;;;;10379447;28;20521;-85
2023/06/23 17:25:09;;;;;;;0.95;0.82;;;;;;;;;;10372754;28;20079;-86
2023/06/23 17:30:15;;;;;;;1.60;1.10;;;;;;;;;;10383806;28;20042;-85
2023/06/23 17:35:18;;;;;;;1.20;1.00;;;;;;;;;;10369468;28;20042;-86
2023/06/23 17:40:25;;;;;;;1.80;1.10;;;;;;;;;;10375372;28;20057;-86
2023/06/23 17:45:32;;;;;;;1.25;1.15;;;;;;;;;;10379737;28;20607;-86
2023/06/23 17:50:38;;;;;;;1.42;1.10;;;;;;;;;;10388722;28;20042;-86
2023/06/23 17:55:43;;;;;;;1.25;1.13;;;;;;;;;;10379436;28;20167;-86
2023/06/23 18:00:47;;;;;;;1.52;1.13;;;;;;;;;;10370049;28;20041;-86
2023/06/23 18:05:50;;;;;;;1.15;0.90;;;;;;;;;;10370616;28;20409;-86
2023/06/23 18:10:55;;;;;;;1.98;1.05;;;;;;;;;;10346526;28;20121;-86
2023/06/23 18:15:59;;;;;;;1.00;0.90;;;;;;;;;;10357211;28;20046;-86
2023/06/23 18:21:02;;;;;;;1.20;1.02;;;;;;;;;;10361534;28;20053;-86
2023/06/23 18:26:08;;;;;;;1.05;0.98;;;;;;;;;;10360762;28;20134;-87
2023/06/23 18:31:12;;;;;;;1.50;1.25;;;;;;;;;;10347075;28;20417;-86
2023/06/23 18:36:16;;;;;;;1.38;1.15;;;;;;;;;;10354581;28;20038;-87
2023/06/23 18:41:21;;;;;;;1.00;0.90;;;;;;;;;;10374343;28;20103;-86
2023/06/23 18:46:27;;;;;;;1.05;0.95;;;;;;;;;;10369633;28;20050;-86
2023/06/23 18:51:35;;;;;;;1.38;0.98;;;;;;;;;;10353755;28;20077;-86
2023/06/23 18:56:42;;;;;;;1.05;0.95;;;;;;;;;;10359465;28;20057;-86
2023/06/23 19:01:45;;;;;;;1.10;1.00;;;;;;;;;;10378407;28;20053;-87
2023/06/23 19:06:49;;;;;;;1.80;1.25;;;;;;;;;;10384302;28;20077;-86
2023/06/23 19:11:55;;;;;;;1.67;1.20;;;;;;;;;;10371946;28;20144;-90
2023/06/23 19:17:01;;;;;;;1.30;1.20;;;;;;;;;;10379177;28;20408;-88
2023/06/23 19:22:06;;;;;;;1.40;1.30;;;;;;;;;;10368230;28;20053;-88
2023/06/23 19:27:11;;;;;;;1.95;1.25;;;;;;;;;;10384330;28;20054;-88
2023/06/23 19:32:15;;;;;;;2.57;1.20;;;;;;;;;;10379554;28;20054;-88
2023/06/23 19:37:18;;;;;;;1.60;1.40;;;;;;;;;;10392529;28;20049;-88
2023/06/23 19:42:24;;;;;;;1.90;1.40;;;;;;;;;;10377511;28;20417;-89
2023/06/23 19:47:27;;;;;;;1.63;1.50;;;;;;;;;;10373087;28;20575;-90
2023/06/23 19:52:32;;;;;;;1.83;1.27;;;;;;;;;;10362529;28;20050;-88
2023/06/23 19:57:38;;;;;;;1.43;1.30;;;;;;;;;;10379492;28;20063;-86
2023/06/23 20:02:42;;;;;;;2.17;1.50;;;;;;;;;;10368929;28;20046;-86
2023/06/23 20:07:47;;;;;;;1.92;1.40;;;;;;;;;;10376923;28;20065;-86
2023/06/23 20:12:52;;;;;;;2.08;1.63;;;;;;;;;;10360760;28;20409;-87
2023/06/23 20:17:56;;;;;;;1.40;1.27;;;;;;;;;;10399407;28;20052;-87
2023/06/23 20:22:59;;;;;;;1.63;1.52;;;;;;;;;;10392159;28;20134;-87
2023/06/23 20:28:05;;;;;;;1.67;1.58;;;;;;;;;;10360033;28;20144;-87
2023/06/23 20:33:08;;;;;;;3.28;1.52;;;;;;;;;;10383665;28;20539;-87
2023/06/23 20:38:12;;;;;;;1.55;1.40;;;;;;;;;;10351881;28;20053;-87
2023/06/23 20:43:17;;;;;;;1.80;1.33;;;;;;;;;;10387940;28;20049;-86
2023/06/23 20:48:21;;;;;;;1.70;1.40;;;;;;;;;;10351241;28;20050;-90
2023/06/23 20:53:25;;;;;;;1.90;1.35;;;;;;;;;;10374598;28;20053;-93
2023/06/23 20:58:30;;;;;;;1.50;1.40;;;;;;;;;;10378456;28;20467;-89
2023/06/23 21:03:34;;;;;;;2.87;1.60;;;;;;;;;;10365696;28;20137;-91
2023/06/23 21:08:38;;;;;;;3.00;1.60;;;;;;;;;;10355933;28;20417;-91
2023/06/23 21:13:43;;;;;;;2.83;1.88;;;;;;;;;;10361747;28;20046;-89
2023/06/23 21:18:47;;;;;;;3.05;1.95;;;;;;;;;;10356448;28;20105;-89
2023/06/23 21:23:54;;;;;;;2.53;1.75;;;;;;;;;;10365056;28;20046;-92
2023/06/23 21:28:59;;;;;;;1.70;1.42;;;;;;;;;;10377696;28;20286;-89
2023/06/23 21:34:03;;;;;;;2.43;1.60;;;;;;;;;;10357280;28;20056;-91
2023/06/23 21:39:07;;;;;;;1.75;1.48;;;;;;;;;;10357124;28;20137;-93
2023/06/23 21:44:12;;;;;;;1.80;1.63;;;;;;;;;;10353206;28;20116;-90
2023/06/23 21:49:16;;;;;;;1.97;1.50;;;;;;;;;;10386908;28;20049;-89
2023/06/23 21:54:20;;;;;;;1.42;1.30;;;;;;;;;;10380085;28;20049;-89
2023/06/23 21:59:26;;;;;;;2.03;1.40;;;;;;;;;;10379890;28;20380;-89
2023/06/23 22:04:30;;;;;;;1.92;1.70;;;;;;;;;;10363678;28;20502;-89
2023/06/23 22:09:33;;;;;;;1.50;1.40;;;;;;;;;;10374002;28;20485;-89
2023/06/23 22:14:39;;;;;;;1.95;1.75;;;;;;;;;;10372871;28;20046;-89
2023/06/23 22:19:43;;;;;;;1.48;1.38;;;;;;;;;;10367453;28;20048;-89
2023/06/23 22:24:47;;;;;;;2.13;1.70;;;;;;;;;;10375708;28;20128;-92
2023/06/23 22:29:52;;;;;;;1.50;1.38;;;;;;;;;;10360371;28;20042;-92
2023/06/23 22:34:56;;;;;;;2.88;1.73;;;;;;;;;;10368322;28;20045;-89
2023/06/23 22:40:00;;;;;;;2.50;1.80;;;;;;;;;;10368875;28;20038;-93
2023/06/23 22:45:05;;;;;;;3.20;1.98;;;;;;;;;;10375668;28;20509;-89
2023/06/23 22:50:09;;;;;;;;;;;;;;;;;;10400889;28;20051;-90
2023/06/23 22:55:13;;;;;;;2.53;1.50;;;;;;;;;;10376069;28;19920;-90
2023/06/23 23:00:19;;;;;;;2.70;1.95;;;;;;;;;;10350990;28;20519;-92
2023/06/23 23:05:22;;;;;;;1.70;1.60;;;;;;;;;;10359406;28;20058;-91
2023/06/23 23:10:26;;;;;;;2.28;1.75;;;;;;;;;;10350834;28;20583;-90
2023/06/23 23:15:31;;;;;;;1.88;1.52;;;;;;;;;;10378430;28;20077;-90
2023/06/23 23:20:37;;;;;;;3.43;1.73;;;;;;;;;;10350355;28;20072;-89
2023/06/23 23:25:41;;;;;;;1.90;1.37;;;;;;;;;;10358229;28;20686;-90
2023/06/23 23:30:46;;;;;;;1.80;1.58;;;;;;;;;;10360798;28;20050;-92
2023/06/23 23:35:50;;;;;;;3.25;1.73;;;;;;;;;;10381146;28;20042;-90
2023/06/23 23:40:54;;;;;;;1.85;1.60;;;;;;;;;;10382338;28;20057;-91
2023/06/23 23:45:59;;;;;;;3.88;1.90;;;;;;;;;;10379486;28;20109;-90
2023/06/23 23:51:04;;;;;;;1.97;1.70;;;;;;;;;;10378419;28;20056;-89
2023/06/23 23:56:08;;;;;;;1.70;1.60;;;;;;;;;;10391623;28;20045;-89
